createdAt,value
2018-04-18T00:03:01.743Z,7.00
2018-04-18T00:08:02.709Z,6.50
2018-04-18T00:13:03.677Z,7.90
2018-04-18T00:18:04.656Z,6.80
2018-04-18T00:23:05.665Z,8.10
2018-04-18T00:28:06.607Z,6.53
2018-04-18T00:33:07.545Z,6.73
2018-04-18T00:38:08.497Z,5.83
2018-04-18T00:43:09.431Z,7.33
2018-04-18T00:48:10.413Z,7.47
2018-04-18T00:53:11.372Z,7.63
2018-04-18T00:58:12.343Z,6.83
2018-04-18T01:03:13.305Z,8.03
2018-04-18T01:08:14.263Z,6.53
2018-04-18T01:13:15.213Z,7.10
2018-04-18T01:18:16.197Z,7.90
2018-04-18T01:23:17.189Z,7.70
2018-04-18T01:28:18.136Z,7.77
2018-04-18T01:33:19.097Z,7.83
2018-04-18T01:38:20.070Z,6.83
2018-04-18T01:43:21.015Z,6.50
2018-04-18T01:48:21.958Z,6.90
2018-04-18T01:53:22.916Z,6.90
2018-04-18T01:58:23.884Z,7.53
2018-04-18T02:03:24.832Z,6.60
2018-04-18T02:08:25.796Z,7.20
2018-04-18T02:13:26.742Z,7.80
2018-04-18T02:18:27.684Z,6.70
2018-04-18T02:23:28.655Z,7.10
2018-04-18T02:28:29.610Z,7.67
2018-04-18T02:33:30.567Z,7.33
2018-04-18T02:38:31.536Z,6.90
2018-04-18T02:43:32.488Z,7.07
2018-04-18T02:48:33.443Z,8.10
2018-04-18T02:53:34.406Z,7.10
2018-04-18T02:58:35.384Z,5.97
2018-04-18T03:03:36.375Z,8.70
2018-04-18T03:08:37.336Z,7.60
2018-04-18T03:13:38.301Z,6.30
2018-04-18T03:18:39.267Z,7.70
2018-04-18T03:23:40.227Z,7.70
2018-04-18T03:28:41.176Z,5.87
2018-04-18T03:33:42.971Z,6.70
2018-04-18T03:38:43.909Z,8.70
2018-04-18T03:43:44.881Z,6.50
2018-04-18T03:48:45.824Z,7.50
2018-04-18T03:53:46.764Z,7.73
2018-04-18T03:58:47.748Z,7.60
2018-04-18T04:03:48.674Z,8.80
2018-04-18T04:08:49.634Z,8.60
2018-04-18T04:13:50.583Z,8.33
2018-04-18T04:19:03.897Z,8.97
2018-04-18T04:24:17.260Z,8.87
2018-04-18T04:29:18.196Z,8.53
2018-04-18T04:34:19.151Z,8.20
2018-04-18T04:39:20.090Z,9.13
2018-04-18T04:44:21.036Z,9.20
2018-04-18T04:49:22.004Z,8.80
2018-04-18T04:54:22.988Z,9.50
2018-04-18T04:59:24.006Z,9.80
2018-04-18T05:04:24.928Z,8.93
2018-04-18T05:09:25.909Z,9.40
2018-04-18T05:14:26.864Z,9.90
2018-04-18T05:19:27.820Z,10.83
2018-04-18T05:24:28.806Z,9.43
2018-04-18T05:29:29.745Z,10.87
2018-04-18T05:34:30.700Z,12.23
2018-04-18T05:39:31.662Z,10.47
2018-04-18T05:44:32.626Z,13.53
2018-04-18T05:49:33.584Z,12.57
2018-04-18T05:54:34.569Z,11.90
2018-04-18T05:59:35.556Z,13.20
2018-04-18T06:04:36.510Z,15.20
2018-04-18T06:09:37.462Z,17.77
2018-04-18T06:14:38.423Z,15.50
2018-04-18T06:19:39.416Z,18.17
2018-04-18T06:24:40.389Z,18.80
2018-04-18T06:29:41.345Z,17.30
2018-04-18T06:34:42.304Z,18.70
2018-04-18T06:39:43.263Z,17.17
2018-04-18T06:44:44.207Z,18.00
2018-04-18T06:49:45.151Z,19.23
2018-04-18T06:54:46.110Z,18.93
2018-04-18T06:59:47.087Z,19.50
2018-04-18T07:04:48.068Z,19.53
2018-04-18T07:09:49.049Z,20.30
2018-04-18T07:14:50.012Z,18.30
2018-04-18T07:19:50.969Z,21.07
2018-04-18T07:24:51.934Z,19.83
2018-04-18T07:29:52.924Z,17.90
2018-04-18T07:34:53.911Z,17.40
2018-04-18T07:39:54.881Z,19.47
2018-04-18T07:44:55.830Z,17.67
2018-04-18T07:49:56.792Z,17.10
2018-04-18T07:54:57.784Z,16.67
2018-04-18T07:59:58.791Z,15.40
2018-04-18T08:04:59.746Z,14.67
2018-04-18T08:10:00.700Z,13.93
2018-04-18T08:15:01.647Z,11.20
2018-04-18T08:20:02.674Z,11.07
2018-04-18T08:25:03.655Z,10.13
2018-04-18T08:30:04.624Z,10.43
2018-04-18T08:35:05.653Z,10.53
2018-04-18T08:40:06.625Z,10.90
2018-04-18T08:45:07.603Z,10.03
2018-04-18T08:50:08.589Z,9.63
2018-04-18T08:55:09.535Z,11.00
2018-04-18T09:00:10.525Z,8.20
2018-04-18T09:05:11.477Z,8.60
2018-04-18T09:10:12.403Z,8.90
2018-04-18T09:15:13.374Z,8.40
2018-04-18T09:20:14.349Z,7.30
2018-04-18T09:25:15.332Z,7.67
2018-04-18T09:30:16.318Z,5.77
2018-04-18T09:35:17.268Z,5.77
2018-04-18T09:40:18.253Z,6.77
2018-04-18T09:45:19.200Z,6.20
2018-04-18T09:50:20.173Z,7.90
2018-04-18T09:55:21.135Z,8.07
2018-04-18T10:00:28.336Z,6.70
2018-04-18T10:05:29.292Z,6.63
2018-04-18T10:10:30.244Z,6.77
2018-04-18T10:15:31.188Z,6.80
2018-04-18T10:20:32.136Z,6.37
2018-04-18T10:25:33.137Z,6.13
2018-04-18T10:30:34.100Z,7.53
2018-04-18T10:35:35.077Z,6.70
2018-04-18T10:40:36.027Z,7.53
2018-04-18T10:45:36.986Z,6.13
2018-04-18T10:50:37.918Z,6.07
2018-04-18T10:55:38.864Z,6.80
2018-04-18T11:00:39.896Z,6.60
2018-04-18T11:05:40.853Z,7.50
2018-04-18T11:10:41.971Z,8.30
2018-04-18T11:15:42.945Z,5.30
2018-04-18T11:20:43.886Z,7.80
2018-04-18T11:25:44.867Z,6.40
2018-04-18T11:30:46.076Z,7.40
2018-04-18T11:35:47.036Z,5.80
2018-04-18T11:40:47.983Z,5.80
2018-04-18T11:45:48.945Z,6.10
2018-04-18T11:50:49.903Z,6.67
2018-04-18T11:55:50.857Z,5.00
2018-04-18T12:00:51.846Z,6.50
2018-04-18T12:05:52.817Z,4.43
2018-04-18T12:10:53.814Z,4.53
2018-04-18T12:15:54.768Z,3.70
2018-04-18T12:20:55.773Z,4.00
2018-04-18T12:25:56.755Z,3.80
2018-04-18T12:30:57.701Z,4.43
2018-04-18T12:35:58.672Z,3.30
2018-04-18T12:40:59.660Z,3.03
2018-04-18T12:46:00.664Z,2.30
2018-04-18T12:51:01.635Z,2.77
2018-04-18T12:56:02.618Z,11.80
2018-04-18T13:01:03.632Z,2.33
2018-04-18T13:06:04.579Z,2.20
2018-04-18T13:11:05.551Z,3.10
2018-04-18T13:16:06.517Z,2.80
2018-04-18T13:21:07.490Z,2.67
2018-04-18T13:26:08.471Z,2.37
2018-04-18T13:31:09.493Z,2.50
2018-04-18T13:36:10.468Z,2.37
2018-04-18T13:41:11.443Z,3.10
2018-04-18T13:46:12.439Z,3.03
2018-04-18T13:51:13.418Z,2.60
2018-04-18T13:56:14.417Z,2.90
2018-04-18T14:01:15.453Z,2.83
2018-04-18T14:06:16.428Z,2.77
2018-04-18T14:11:17.385Z,3.43
2018-04-18T14:16:18.389Z,2.70
2018-04-18T14:21:19.365Z,2.50
2018-04-18T14:26:20.343Z,2.83
2018-04-18T14:31:21.352Z,2.60
2018-04-18T14:36:22.345Z,2.60
2018-04-18T14:41:23.309Z,3.13
2018-04-18T14:46:24.288Z,2.80
2018-04-18T14:51:25.265Z,2.20
2018-04-18T14:56:26.247Z,2.43
2018-04-18T15:01:27.272Z,2.40
2018-04-18T15:06:28.221Z,2.23
2018-04-18T15:11:29.177Z,2.43
2018-04-18T15:16:30.151Z,2.87
2018-04-18T15:21:31.103Z,2.90
2018-04-18T15:26:32.079Z,1.97
2018-04-18T15:31:33.043Z,2.30
2018-04-18T15:36:33.991Z,2.33
2018-04-18T15:41:34.967Z,2.40
2018-04-18T15:46:35.926Z,2.73
2018-04-18T15:51:36.902Z,2.40
2018-04-18T15:56:37.893Z,2.83
2018-04-18T16:01:38.936Z,2.10
2018-04-18T16:06:39.935Z,2.00
2018-04-18T16:11:40.931Z,2.30
2018-04-18T16:16:41.904Z,2.30
2018-04-18T16:21:42.901Z,2.53
2018-04-18T16:26:43.903Z,1.60
2018-04-18T16:31:44.888Z,1.67
2018-04-18T16:36:45.877Z,1.93
2018-04-18T16:41:46.888Z,2.00
2018-04-18T16:46:47.869Z,2.43
2018-04-18T16:51:48.904Z,2.17
2018-04-18T16:56:49.899Z,2.13
2018-04-18T17:01:50.940Z,2.00
2018-04-18T17:06:52.001Z,3.67
2018-04-18T17:11:52.912Z,3.90
2018-04-18T17:16:53.901Z,3.10
2018-04-18T17:21:54.953Z,3.60
2018-04-18T17:26:55.939Z,3.17
2018-04-18T17:31:56.907Z,3.07
2018-04-18T17:36:57.917Z,3.20
2018-04-18T17:41:58.904Z,3.10
2018-04-18T17:46:59.900Z,3.47
2018-04-18T17:52:00.893Z,2.50
2018-04-18T17:57:01.874Z,2.80
2018-04-18T18:02:02.894Z,2.77
2018-04-18T18:07:03.905Z,3.10
2018-04-18T18:12:04.942Z,4.40
2018-04-18T18:17:05.915Z,4.03
2018-04-18T18:22:06.917Z,4.20
2018-04-18T18:27:07.973Z,3.77
2018-04-18T18:32:09.035Z,3.60
2018-04-18T18:37:10.056Z,3.57
2018-04-18T18:42:11.060Z,3.57
2018-04-18T18:47:12.109Z,3.80
2018-04-18T18:52:13.142Z,4.67
2018-04-18T18:57:14.124Z,4.10
2018-04-18T19:02:15.165Z,3.83
2018-04-18T19:07:16.184Z,4.40
2018-04-18T19:12:17.156Z,3.50
2018-04-18T19:17:18.163Z,5.10
2018-04-18T19:22:19.195Z,6.13
2018-04-18T19:27:20.478Z,6.60
2018-04-18T19:32:21.454Z,4.90
2018-04-18T19:37:22.492Z,4.17
2018-04-18T19:42:23.499Z,3.70
2018-04-18T19:47:24.532Z,4.37
2018-04-18T19:52:25.573Z,3.40
2018-04-18T19:57:26.588Z,4.50
2018-04-18T20:02:27.632Z,4.20
2018-04-18T20:07:28.602Z,4.93
2018-04-18T20:12:29.633Z,4.50
2018-04-18T20:17:30.622Z,5.23
2018-04-18T20:22:31.701Z,5.27
2018-04-18T20:27:32.648Z,6.77
2018-04-18T20:32:33.623Z,5.37
2018-04-18T20:37:34.640Z,4.67
2018-04-18T20:42:35.679Z,5.20
2018-04-18T20:47:36.665Z,5.63
2018-04-18T20:52:37.661Z,5.20
2018-04-18T20:57:38.660Z,6.90
2018-04-18T21:02:39.693Z,6.53
2018-04-18T21:07:41.634Z,6.23
2018-04-18T21:12:42.644Z,6.33
2018-04-18T21:17:43.917Z,6.27
2018-04-18T21:22:44.931Z,5.90
2018-04-18T21:27:45.952Z,5.93
2018-04-18T21:32:46.984Z,6.40
2018-04-18T21:37:47.948Z,7.70
2018-04-18T21:42:48.954Z,6.73
2018-04-18T21:47:49.932Z,6.20
2018-04-18T21:52:50.927Z,6.80
2018-04-18T21:57:51.887Z,6.60
2018-04-18T22:02:52.904Z,7.60
2018-04-18T22:07:53.903Z,7.30
2018-04-18T22:12:54.888Z,5.83
2018-04-18T22:17:55.871Z,7.40
2018-04-18T22:22:56.830Z,6.90
2018-04-18T22:27:57.836Z,8.00
2018-04-18T22:32:58.793Z,7.43
2018-04-18T22:37:59.793Z,7.67
2018-04-18T22:43:00.760Z,9.13
2018-04-18T22:48:01.732Z,8.57
2018-04-18T22:53:02.716Z,9.00
2018-04-18T22:58:03.676Z,8.23
2018-04-18T23:03:04.651Z,8.03
2018-04-18T23:08:05.631Z,7.93
2018-04-18T23:13:06.606Z,9.20
2018-04-18T23:18:07.597Z,7.30
2018-04-18T23:23:08.564Z,7.10
2018-04-18T23:28:09.538Z,7.00
2018-04-18T23:33:10.499Z,8.47
2018-04-18T23:38:11.455Z,7.60
2018-04-18T23:43:12.417Z,7.40
2018-04-18T23:48:13.401Z,7.83
2018-04-18T23:53:14.353Z,8.80
2018-04-18T23:58:15.306Z,8.37
